Time;durP1;ratioP1;P1;durP2;ratioP2;P2;SDS_P1;SDS_P2;PMS_P1;PMS_P2;Temp;Humidity;BMP_temperature;BMP_pressure;BME280_temperature;BME280_humidity;BME280_pressure;Samples;Min_cycle;Max_cycle;Signal;HPM_P1;HPM_P2
2023/04/15 00:00:58;;;;;;;;;;;;;;;;;;5035746;28;20257;-23
2023/04/15 00:03:24;;;;;;;;;;;;;;;;;;5035255;28;19925;-21
2023/04/15 00:05:50;;;;;;;;;;;;;;;;;;5035414;28;19909;-21
2023/04/15 00:08:17;;;;;;;;;;;;;;;;;;5035328;28;20252;-21
2023/04/15 00:10:45;;;;;;;;;;;;;;;;;;5035598;28;20197;-21
2023/04/15 00:13:11;;;;;;;;;;;;;;;;;;5034837;28;20336;-22
2023/04/15 00:15:37;;;;;;;;;;;;;;;;;;5035413;28;20004;-21
2023/04/15 00:18:03;;;;;;;;;;;;;;;;;;5035210;28;20340;-24
2023/04/15 00:20:29;;;;;;;;;;;;;;;;;;5035011;28;20324;-22
2023/04/15 00:22:55;;;;;;;;;;;;;;;;;;5035278;28;19920;-22
2023/04/15 00:25:21;;;;;;;;;;;;;;;;;;5035351;28;19924;-22
2023/04/15 00:27:47;;;;;;;;;;;;;;;;;;5034929;28;19924;-21
2023/04/15 00:30:13;;;;;;;;;;;;;;;;;;5035076;28;20344;-24
2023/04/15 00:32:41;;;;;;;;;;;;;;;;;;5034971;28;20209;-22
2023/04/15 00:35:07;;;;;;;;;;;;;;;;;;5034914;28;20234;-23
2023/04/15 00:37:34;;;;;;;;;;;;;;;;;;5035172;28;19909;-23
2023/04/15 00:40:00;;;;;;;;;;;;;;;;;;5034876;28;19952;-23
2023/04/15 00:42:26;;;;;;;;;;;;;;;;;;5035038;28;19987;-22
2023/04/15 00:44:52;;;;;;;;;;;;;;;;;;5034783;28;19924;-22
2023/04/15 00:47:18;;;;;;;;;;;;;;;;;;5034752;28;19959;-20
2023/04/15 00:49:44;;;;;;;;;;;;;;;;;;5034784;28;19917;-22
2023/04/15 00:52:09;;;;;;;;;;;;;;;;;;5034907;28;19915;-22
2023/04/15 00:54:36;;;;;;;;;;;;;;;;;;5035011;28;19963;-21
2023/04/15 00:57:02;;;;;;;;;;;;;;;;;;5033658;28;19909;-21
2023/04/15 00:59:28;;;;;;;;;;;;;;;;;;5033592;28;19909;-21
2023/04/15 01:01:54;;;;;;;;;;;;;;;;;;5033516;28;19913;-22
2023/04/15 01:04:20;;;;;;;;;;;;;;;;;;5034377;28;19931;-23
2023/04/15 01:06:46;;;;;;;;;;;;;;;;;;5034786;28;19910;-23
2023/04/15 01:09:12;;;;;;;;;;;;;;;;;;5034491;28;19920;-23
2023/04/15 01:11:38;;;;;;;;;;;;;;;;;;5034411;28;20000;-21
2023/04/15 01:14:04;;;;;;;;;;;;;;;;;;5034295;28;19940;-22
2023/04/15 01:16:30;;;;;;;;;;;;;;;;;;5033471;28;19909;-23
2023/04/15 01:18:56;;;;;;;;;;;;;;;;;;5034638;28;19978;-22
2023/04/15 01:21:22;;;;;;;;;;;;;;;;;;5034593;28;19996;-23
2023/04/15 01:23:48;;;;;;;;;;;;;;;;;;5034559;28;19921;-20
2023/04/15 01:26:15;;;;;;;;;;;;;;;;;;5034961;28;19931;-21
2023/04/15 01:28:41;;;;;;;;;;;;;;;;;;5038605;28;19932;-23
2023/04/15 01:31:07;;;;;;;;;;;;;;;;;;5038629;28;19936;-23
2023/04/15 01:33:33;;;;;;;;;;;;;;;;;;5038272;28;20406;-22
2023/04/15 01:35:59;;;;;;;;;;;;;;;;;;5038355;28;19963;-23
2023/04/15 01:38:25;;;;;;;;;;;;;;;;;;5038511;28;19982;-22
2023/04/15 01:40:51;;;;;;;;;;;;;;;;;;5038178;28;19909;-22
2023/04/15 01:43:17;;;;;;;;;;;;;;;;;;5038053;28;20333;-22
2023/04/15 01:45:43;;;;;;;;;;;;;;;;;;5038353;28;19913;-22
2023/04/15 01:48:09;;;;;;;;;;;;;;;;;;5037930;28;19913;-23
2023/04/15 01:50:36;;;;;;;;;;;;;;;;;;5038184;28;19940;-22
2023/04/15 01:53:02;;;;;;;;;;;;;;;;;;5038034;28;19920;-22
2023/04/15 01:55:29;;;;;;;;;;;;;;;;;;5038153;28;19909;-20
2023/04/15 01:57:56;;;;;;;;;;;;;;;;;;5037945;28;19920;-21
2023/04/15 02:00:22;;;;;;;;;;;;;;;;;;5038031;28;19910;-21
2023/04/15 02:02:48;;;;;;;;;;;;;;;;;;5037523;28;19909;-30
2023/04/15 02:05:14;;;;;;;;;;;;;;;;;;5037712;28;20313;-22
2023/04/15 02:07:41;;;;;;;;;;;;;;;;;;5037809;28;19923;-22
2023/04/15 02:10:08;;;;;;;;;;;;;;;;;;5036609;28;19920;-22
2023/04/15 02:12:34;;;;;;;;;;;;;;;;;;5037511;28;19967;-21
2023/04/15 02:15:00;;;;;;;;;;;;;;;;;;5037638;28;19953;-22
2023/04/15 02:17:26;;;;;;;;;;;;;;;;;;5037522;28;19987;-22
2023/04/15 02:19:53;;;;;;;;;;;;;;;;;;5037712;28;20247;-21
2023/04/15 02:22:19;;;;;;;;;;;;;;;;;;5037352;28;19920;-22
2023/04/15 02:24:45;;;;;;;;;;;;;;;;;;5037335;28;19909;-23
2023/04/15 02:27:11;;;;;;;;;;;;;;;;;;5037283;28;19913;-22
2023/04/15 02:29:37;;;;;;;;;;;;;;;;;;5037262;28;19962;-22
2023/04/15 02:32:03;;;;;;;;;;;;;;;;;;5036213;28;19920;-21
2023/04/15 02:34:30;;;;;;;;;;;;;;;;;;5037212;28;20311;-22
2023/04/15 02:36:56;;;;;;;;;;;;;;;;;;5036754;28;20316;-21
2023/04/15 02:39:22;;;;;;;;;;;;;;;;;;5037204;28;19909;-21
2023/04/15 02:41:50;;;;;;;;;;;;;;;;;;5037029;28;19909;-22
2023/04/15 02:44:19;;;;;;;;;;;;;;;;;;5037250;28;19913;-21
2023/04/15 02:46:49;;;;;;;;;;;;;;;;;;5037239;28;20283;-21
2023/04/15 02:49:15;;;;;;;;;;;;;;;;;;5037138;28;19913;-22
2023/04/15 02:51:41;;;;;;;;;;;;;;;;;;5036951;28;20348;-23
2023/04/15 02:54:07;;;;;;;;;;;;;;;;;;5036811;28;19915;-23
2023/04/15 02:56:33;;;;;;;;;;;;;;;;;;5037079;28;19956;-21
2023/04/15 02:58:59;;;;;;;;;;;;;;;;;;5036764;28;19949;-22
2023/04/15 03:01:26;;;;;;;;;;;;;;;;;;5036957;28;19986;-23
2023/04/15 03:03:52;;;;;;;;;;;;;;;;;;5035508;28;20272;-22
2023/04/15 03:06:17;;;;;;;;;;;;;;;;;;5035620;28;19909;-22
2023/04/15 03:08:44;;;;;;;;;;;;;;;;;;5036507;28;20023;-22
2023/04/15 03:11:11;;;;;;;;;;;;;;;;;;5036581;28;19910;-22
2023/04/15 03:13:38;;;;;;;;;;;;;;;;;;5036705;28;20383;-22
2023/04/15 03:16:04;;;;;;;;;;;;;;;;;;5036469;28;19913;-22
2023/04/15 03:18:30;;;;;;;;;;;;;;;;;;5036672;28;20309;-22
2023/04/15 03:20:56;;;;;;;;;;;;;;;;;;5036325;28;19953;-22
2023/04/15 03:23:22;;;;;;;;;;;;;;;;;;5035131;28;19916;-21
2023/04/15 03:25:48;;;;;;;;;;;;;;;;;;5036242;28;19916;-22
2023/04/15 03:28:14;;;;;;;;;;;;;;;;;;5036158;28;19979;-20
2023/04/15 03:30:40;;;;;;;;;;;;;;;;;;5036239;28;19935;-20
2023/04/15 03:33:07;;;;;;;;;;;;;;;;;;5036080;28;19910;-22
2023/04/15 03:35:33;;;;;;;;;;;;;;;;;;5036060;28;20304;-23
2023/04/15 03:37:59;;;;;;;;;;;;;;;;;;5035964;28;19910;-23
2023/04/15 03:40:25;;;;;;;;;;;;;;;;;;5035971;28;20315;-22
2023/04/15 03:42:51;;;;;;;;;;;;;;;;;;5035837;28;19919;-22
2023/04/15 03:45:17;;;;;;;;;;;;;;;;;;5036326;28;19945;-20
2023/04/15 03:47:43;;;;;;;;;;;;;;;;;;5035793;28;19913;-24
2023/04/15 03:50:09;;;;;;;;;;;;;;;;;;5035432;28;19909;-24
2023/04/15 03:52:35;;;;;;;;;;;;;;;;;;5035871;28;19944;-23
2023/04/15 03:55:01;;;;;;;;;;;;;;;;;;5035635;28;20237;-22
2023/04/15 03:57:27;;;;;;;;;;;;;;;;;;5034660;28;19909;-20
2023/04/15 03:59:53;;;;;;;;;;;;;;;;;;5035572;28;20256;-23
2023/04/15 04:02:19;;;;;;;;;;;;;;;;;;5035449;28;19909;-23
2023/04/15 04:04:45;;;;;;;;;;;;;;;;;;5035428;28;19921;-21
2023/04/15 04:07:11;;;;;;;;;;;;;;;;;;5035661;28;19967;-22
2023/04/15 04:09:39;;;;;;;;;;;;;;;;;;5035422;28;19989;-20
2023/04/15 04:12:05;;;;;;;;;;;;;;;;;;5035316;28;19913;-22
2023/04/15 04:14:31;;;;;;;;;;;;;;;;;;5035334;28;19979;-22
2023/04/15 04:16:57;;;;;;;;;;;;;;;;;;5035536;28;19937;-23
2023/04/15 04:19:23;;;;;;;;;;;;;;;;;;5035269;28;19909;-22
2023/04/15 04:21:49;;;;;;;;;;;;;;;;;;5035130;28;19916;-22
2023/04/15 04:24:15;;;;;;;;;;;;;;;;;;5034153;28;19916;-22
2023/04/15 04:26:41;;;;;;;;;;;;;;;;;;5035183;28;19909;-21
2023/04/15 04:29:07;;;;;;;;;;;;;;;;;;5035039;28;20267;-23
2023/04/15 04:31:33;;;;;;;;;;;;;;;;;;5035140;28;19928;-23
2023/04/15 04:33:59;;;;;;;;;;;;;;;;;;5034877;28;19909;-21
2023/04/15 04:36:25;;;;;;;;;;;;;;;;;;5034861;28;20402;-22
2023/04/15 04:38:51;;;;;;;;;;;;;;;;;;5035177;28;19959;-21
2023/04/15 04:41:17;;;;;;;;;;;;;;;;;;5035091;28;20340;-21
2023/04/15 04:43:43;;;;;;;;;;;;;;;;;;5034883;28;20287;-21
2023/04/15 04:46:09;;;;;;;;;;;;;;;;;;5034803;28;19935;-24
2023/04/15 04:48:35;;;;;;;;;;;;;;;;;;5034738;28;19917;-22
2023/04/15 04:51:01;;;;;;;;;;;;;;;;;;5035042;28;19909;-22
2023/04/15 04:53:27;;;;;;;;;;;;;;;;;;5034861;28;20243;-24
2023/04/15 04:55:53;;;;;;;;;;;;;;;;;;5034885;28;19939;-21
2023/04/15 04:58:19;;;;;;;;;;;;;;;;;;5034609;28;19909;-21
2023/04/15 05:00:45;;;;;;;;;;;;;;;;;;5035143;28;19911;-22
2023/04/15 05:03:11;;;;;;;;;;;;;;;;;;5034247;28;19944;-20
2023/04/15 05:05:39;;;;;;;;;;;;;;;;;;5034562;28;20000;-21
2023/04/15 05:08:06;;;;;;;;;;;;;;;;;;5034705;28;20248;-22
2023/04/15 05:10:31;;;;;;;;;;;;;;;;;;5034493;28;19919;-21
2023/04/15 05:12:57;;;;;;;;;;;;;;;;;;5034404;28;19913;-22
2023/04/15 05:15:24;;;;;;;;;;;;;;;;;;5034455;28;20382;-22
2023/04/15 05:17:50;;;;;;;;;;;;;;;;;;5034742;28;19909;-22
2023/04/15 05:20:16;;;;;;;;;;;;;;;;;;5034497;28;20302;-23
2023/04/15 05:22:42;;;;;;;;;;;;;;;;;;5034279;28;19909;-21
2023/04/15 05:25:08;;;;;;;;;;;;;;;;;;5034362;28;19909;-21
2023/04/15 05:27:35;;;;;;;;;;;;;;;;;;5034530;28;19931;-23
2023/04/15 05:30:00;;;;;;;;;;;;;;;;;;5034321;28;19992;-22
2023/04/15 05:32:26;;;;;;;;;;;;;;;;;;5034259;28;20328;-21
2023/04/15 05:34:52;;;;;;;;;;;;;;;;;;5034251;28;19916;-23
2023/04/15 05:37:19;;;;;;;;;;;;;;;;;;5034587;28;20358;-22
2023/04/15 05:39:45;;;;;;;;;;;;;;;;;;5034506;28;19909;-21
2023/04/15 05:42:11;;;;;;;;;;;;;;;;;;5033198;28;20359;-21
2023/04/15 05:44:37;;;;;;;;;;;;;;;;;;5034465;28;20261;-22
2023/04/15 05:47:04;;;;;;;;;;;;;;;;;;5034382;28;20347;-22
2023/04/15 05:49:30;;;;;;;;;;;;;;;;;;5034395;28;20350;-21
2023/04/15 05:51:56;;;;;;;;;;;;;;;;;;5034257;28;19913;-21
2023/04/15 05:54:22;;;;;;;;;;;;;;;;;;5034074;28;20229;-22
2023/04/15 05:56:48;;;;;;;;;;;;;;;;;;5034119;28;19921;-23
2023/04/15 05:59:14;;;;;;;;;;;;;;;;;;5034060;28;19921;-21
2023/04/15 06:01:40;;;;;;;;;;;;;;;;;;5034045;28;19909;-22
2023/04/15 06:04:06;;;;;;;;;;;;;;;;;;5033739;28;19921;-21
2023/04/15 06:06:32;;;;;;;;;;;;;;;;;;5034091;28;19936;-23
2023/04/15 06:08:58;;;;;;;;;;;;;;;;;;5033942;28;19913;-23
2023/04/15 06:11:25;;;;;;;;;;;;;;;;;;5034259;28;20255;-21
2023/04/15 06:13:51;;;;;;;;;;;;;;;;;;5037729;28;19909;-20
2023/04/15 06:16:17;;;;;;;;;;;;;;;;;;5037526;28;19917;-22
2023/04/15 06:18:43;;;;;;;;;;;;;;;;;;5037778;28;19917;-22
2023/04/15 06:21:09;;;;;;;;;;;;;;;;;;5037678;28;20027;-22
2023/04/15 06:23:35;;;;;;;;;;;;;;;;;;5037381;28;20352;-26
2023/04/15 06:26:01;;;;;;;;;;;;;;;;;;5037621;28;20393;-23
2023/04/15 06:28:27;;;;;;;;;;;;;;;;;;5037280;28;19924;-22
2023/04/15 06:30:53;;;;;;;;;;;;;;;;;;5037561;28;19909;-21
2023/04/15 06:33:19;;;;;;;;;;;;;;;;;;5037223;28;20051;-23
2023/04/15 06:35:46;;;;;;;;;;;;;;;;;;5036293;28;20324;-22
2023/04/15 06:38:13;;;;;;;;;;;;;;;;;;5037469;28;19932;-21
2023/04/15 06:40:39;;;;;;;;;;;;;;;;;;5037155;28;20001;-21
2023/04/15 06:43:05;;;;;;;;;;;;;;;;;;5037005;28;20002;-23
2023/04/15 06:45:31;;;;;;;;;;;;;;;;;;5037300;28;19913;-22
2023/04/15 06:47:57;;;;;;;;;;;;;;;;;;5037192;28;20363;-20
2023/04/15 06:50:23;;;;;;;;;;;;;;;;;;5037238;28;19909;-21
2023/04/15 06:52:49;;;;;;;;;;;;;;;;;;5036803;28;19967;-21
2023/04/15 06:55:15;;;;;;;;;;;;;;;;;;5037166;28;19909;-23
2023/04/15 06:57:41;;;;;;;;;;;;;;;;;;5037081;28;19913;-22
2023/04/15 07:00:07;;;;;;;;;;;;;;;;;;5036794;28;19909;-21
2023/04/15 07:02:33;;;;;;;;;;;;;;;;;;5035587;28;19913;-22
2023/04/15 07:04:59;;;;;;;;;;;;;;;;;;5036778;28;19952;-22
2023/04/15 07:07:25;;;;;;;;;;;;;;;;;;5036859;28;19909;-21
2023/04/15 07:09:52;;;;;;;;;;;;;;;;;;5036570;28;19909;-22
2023/04/15 07:12:18;;;;;;;;;;;;;;;;;;5036555;28;19909;-21
2023/04/15 07:14:44;;;;;;;;;;;;;;;;;;5036745;28;20394;-22
2023/04/15 07:17:11;;;;;;;;;;;;;;;;;;5036458;28;20252;-23
2023/04/15 07:19:37;;;;;;;;;;;;;;;;;;5036443;28;19975;-23
2023/04/15 07:22:02;;;;;;;;;;;;;;;;;;5036283;28;20050;-20
2023/04/15 07:24:28;;;;;;;;;;;;;;;;;;5035118;28;19941;-22
2023/04/15 07:26:58;;;;;;;;;;;;;;;;;;5036575;28;19913;-21
2023/04/15 07:29:24;;;;;;;;;;;;;;;;;;5036075;28;19924;-21
2023/04/15 07:31:50;;;;;;;;;;;;;;;;;;5036026;28;19916;-21
2023/04/15 07:34:16;;;;;;;;;;;;;;;;;;5036161;28;19908;-22
2023/04/15 07:36:42;;;;;;;;;;;;;;;;;;5036109;28;19909;-22
2023/04/15 07:39:08;;;;;;;;;;;;;;;;;;5036286;28;19920;-21
2023/04/15 07:41:34;;;;;;;;;;;;;;;;;;5036048;28;20377;-22
2023/04/15 07:44:01;;;;;;;;;;;;;;;;;;5034925;28;19963;-22
2023/04/15 07:46:27;;;;;;;;;;;;;;;;;;5036127;28;19909;-22
2023/04/15 07:48:53;;;;;;;;;;;;;;;;;;5035974;28;19924;-21
2023/04/15 07:51:20;;;;;;;;;;;;;;;;;;5036026;28;19909;-21
2023/04/15 07:53:45;;;;;;;;;;;;;;;;;;5035648;28;19909;-21
2023/04/15 07:56:11;;;;;;;;;;;;;;;;;;5035703;28;19913;-22
2023/04/15 07:58:37;;;;;;;;;;;;;;;;;;5035635;28;19917;-22
2023/04/15 08:01:03;;;;;;;;;;;;;;;;;;5035613;28;19936;-21
2023/04/15 08:03:30;;;;;;;;;;;;;;;;;;5035314;28;19927;-21
2023/04/15 08:05:56;;;;;;;;;;;;;;;;;;5035460;28;19917;-21
2023/04/15 08:08:22;;;;;;;;;;;;;;;;;;5035374;28;19942;-23
2023/04/15 08:10:48;;;;;;;;;;;;;;;;;;5035438;28;19932;-23
2023/04/15 08:13:14;;;;;;;;;;;;;;;;;;5035270;28;20308;-23
2023/04/15 08:15:40;;;;;;;;;;;;;;;;;;5035350;28;19912;-23
2023/04/15 08:18:06;;;;;;;;;;;;;;;;;;5034314;28;20000;-22
2023/04/15 08:20:32;;;;;;;;;;;;;;;;;;5034301;28;20259;-21
2023/04/15 08:22:58;;;;;;;;;;;;;;;;;;5035140;28;19949;-21
2023/04/15 08:25:24;;;;;;;;;;;;;;;;;;5035127;28;19913;-22
2023/04/15 08:27:51;;;;;;;;;;;;;;;;;;5034037;28;20035;-22
2023/04/15 08:30:18;;;;;;;;;;;;;;;;;;5035317;28;19928;-22
2023/04/15 08:32:44;;;;;;;;;;;;;;;;;;5034949;28;19913;-22
2023/04/15 08:35:10;;;;;;;;;;;;;;;;;;5034858;28;19923;-21
2023/04/15 08:37:36;;;;;;;;;;;;;;;;;;5035007;28;19917;-21
2023/04/15 08:40:01;;;;;;;;;;;;;;;;;;5034964;28;20348;-20
2023/04/15 08:42:27;;;;;;;;;;;;;;;;;;5034830;28;19979;-22
2023/04/15 08:44:54;;;;;;;;;;;;;;;;;;5035097;28;19986;-23
2023/04/15 08:47:21;;;;;;;;;;;;;;;;;;5034748;28;19966;-21
2023/04/15 08:49:52;;;;;;;;;;;;;;;;;;5035056;28;19944;-21
2023/04/15 08:52:18;;;;;;;;;;;;;;;;;;5034763;28;19920;-20
2023/04/15 08:54:44;;;;;;;;;;;;;;;;;;5034735;28;19913;-22
2023/04/15 08:57:10;;;;;;;;;;;;;;;;;;5034763;28;20006;-22
2023/04/15 08:59:36;;;;;;;;;;;;;;;;;;5034642;28;19935;-22
2023/04/15 09:02:02;;;;;;;;;;;;;;;;;;5034549;28;19909;-22
2023/04/15 09:04:28;;;;;;;;;;;;;;;;;;5034376;28;19921;-20
2023/04/15 09:06:54;;;;;;;;;;;;;;;;;;5034539;28;19960;-22
2023/04/15 09:09:21;;;;;;;;;;;;;;;;;;5034666;28;19956;-23
2023/04/15 09:11:48;;;;;;;;;;;;;;;;;;5034463;28;19909;-25
2023/04/15 09:14:15;;;;;;;;;;;;;;;;;;5034525;28;19968;-21
2023/04/15 09:16:41;;;;;;;;;;;;;;;;;;5034563;28;19917;-23
2023/04/15 09:19:07;;;;;;;;;;;;;;;;;;5034472;28;20398;-22
2023/04/15 09:21:34;;;;;;;;;;;;;;;;;;5034427;28;19915;-22
2023/04/15 09:24:00;;;;;;;;;;;;;;;;;;5034402;28;19913;-21
2023/04/15 09:26:26;;;;;;;;;;;;;;;;;;5034423;28;19909;-22
2023/04/15 09:28:52;;;;;;;;;;;;;;;;;;5034261;28;20209;-22
2023/04/15 09:31:18;;;;;;;;;;;;;;;;;;5033344;28;20063;-22
2023/04/15 09:33:44;;;;;;;;;;;;;;;;;;5034251;28;19913;-22
2023/04/15 09:36:10;;;;;;;;;;;;;;;;;;5033250;28;19909;-22
2023/04/15 09:38:36;;;;;;;;;;;;;;;;;;5034299;28;19910;-21
2023/04/15 09:41:02;;;;;;;;;;;;;;;;;;5034497;28;20248;-22
2023/04/15 09:43:28;;;;;;;;;;;;;;;;;;5034175;28;20011;-24
2023/04/15 09:45:54;;;;;;;;;;;;;;;;;;5033173;28;20026;-22
2023/04/15 09:48:20;;;;;;;;;;;;;;;;;;5037722;28;19944;-22
2023/04/15 09:50:47;;;;;;;;;;;;;;;;;;5038361;28;19909;-21
2023/04/15 09:53:13;;;;;;;;;;;;;;;;;;5037926;28;20004;-22
2023/04/15 09:55:39;;;;;;;;;;;;;;;;;;5038195;28;19956;-21
2023/04/15 09:58:05;;;;;;;;;;;;;;;;;;5038231;28;20332;-22
2023/04/15 10:00:31;;;;;;;;;;;;;;;;;;5038172;28;19909;-21
2023/04/15 10:02:57;;;;;;;;;;;;;;;;;;5037610;28;20256;-22
2023/04/15 10:05:24;;;;;;;;;;;;;;;;;;5038111;28;20371;-21
2023/04/15 10:07:50;;;;;;;;;;;;;;;;;;5038043;28;19913;-22
2023/04/15 10:10:16;;;;;;;;;;;;;;;;;;5037772;28;20256;-20
2023/04/15 10:12:42;;;;;;;;;;;;;;;;;;5037649;28;19916;-22
2023/04/15 10:15:08;;;;;;;;;;;;;;;;;;5037587;28;20356;-22
2023/04/15 10:17:34;;;;;;;;;;;;;;;;;;5037737;28;20340;-22
2023/04/15 10:20:00;;;;;;;;;;;;;;;;;;5037476;28;20256;-21
2023/04/15 10:22:27;;;;;;;;;;;;;;;;;;5037345;28;19917;-21
2023/04/15 10:24:53;;;;;;;;;;;;;;;;;;5037728;28;20339;-22
2023/04/15 10:27:19;;;;;;;;;;;;;;;;;;5037628;28;19909;-21
2023/04/15 10:29:45;;;;;;;;;;;;;;;;;;5037328;28;19923;-22
2023/04/15 10:32:11;;;;;;;;;;;;;;;;;;5037243;28;19909;-21
2023/04/15 10:34:37;;;;;;;;;;;;;;;;;;5037270;28;19909;-20
2023/04/15 10:37:03;;;;;;;;;;;;;;;;;;5037243;28;19909;-22
2023/04/15 10:39:29;;;;;;;;;;;;;;;;;;5037255;28;19909;-22
2023/04/15 10:41:55;;;;;;;;;;;;;;;;;;5035996;28;19909;-21
2023/04/15 10:44:21;;;;;;;;;;;;;;;;;;5036059;28;19909;-22
2023/04/15 10:46:47;;;;;;;;;;;;;;;;;;5036985;28;19916;-23
2023/04/15 10:49:13;;;;;;;;;;;;;;;;;;5036922;28;20007;-20
2023/04/15 10:51:43;;;;;;;;;;;;;;;;;;5037023;28;19990;-22
2023/04/15 10:54:09;;;;;;;;;;;;;;;;;;5036860;28;20043;-22
2023/04/15 10:56:35;;;;;;;;;;;;;;;;;;5036811;28;19920;-22
2023/04/15 10:59:01;;;;;;;;;;;;;;;;;;5036752;28;19909;-22
2023/04/15 11:01:27;;;;;;;;;;;;;;;;;;5036729;28;19939;-22
2023/04/15 11:03:53;;;;;;;;;;;;;;;;;;5036481;28;19925;-21
2023/04/15 11:06:19;;;;;;;;;;;;;;;;;;5036661;28;20008;-22
2023/04/15 11:08:45;;;;;;;;;;;;;;;;;;5035543;28;19921;-22
2023/04/15 11:11:11;;;;;;;;;;;;;;;;;;5036842;28;20019;-21
2023/04/15 11:13:37;;;;;;;;;;;;;;;;;;5036443;28;19917;-23
2023/04/15 11:16:03;;;;;;;;;;;;;;;;;;5036872;28;19913;-21
2023/04/15 11:18:30;;;;;;;;;;;;;;;;;;5036707;28;19920;-22
2023/04/15 11:20:58;;;;;;;;;;;;;;;;;;5036428;28;19966;-22
2023/04/15 11:23:24;;;;;;;;;;;;;;;;;;5036539;28;19960;-22
2023/04/15 11:25:50;;;;;;;;;;;;;;;;;;5036564;28;20002;-23
2023/04/15 11:28:16;;;;;;;;;;;;;;;;;;5036187;28;19924;-21
2023/04/15 11:30:42;;;;;;;;;;;;;;;;;;5036408;28;19949;-22
2023/04/15 11:33:08;;;;;;;;;;;;;;;;;;5036095;28;19909;-23
2023/04/15 11:35:34;;;;;;;;;;;;;;;;;;5036070;28;19921;-22
2023/04/15 11:38:01;;;;;;;;;;;;;;;;;;5036084;28;20244;-23
2023/04/15 11:40:27;;;;;;;;;;;;;;;;;;5036304;28;20322;-22
2023/04/15 11:42:52;;;;;;;;;;;;;;;;;;5035872;28;19949;-21
2023/04/15 11:45:19;;;;;;;;;;;;;;;;;;5035940;28;19979;-21
2023/04/15 11:47:45;;;;;;;;;;;;;;;;;;5036133;28;20285;-24
2023/04/15 11:50:11;;;;;;;;;;;;;;;;;;5035780;28;19992;-22
2023/04/15 11:52:37;;;;;;;;;;;;;;;;;;5035694;28;19992;-22
2023/04/15 11:55:03;;;;;;;;;;;;;;;;;;5036067;28;19917;-21
2023/04/15 11:57:29;;;;;;;;;;;;;;;;;;5034712;28;19936;-21
2023/04/15 11:59:55;;;;;;;;;;;;;;;;;;5035946;28;19913;-22
2023/04/15 12:02:21;;;;;;;;;;;;;;;;;;5035758;28;20289;-22
2023/04/15 12:04:47;;;;;;;;;;;;;;;;;;5035440;28;19928;-22
2023/04/15 12:07:13;;;;;;;;;;;;;;;;;;5035758;28;20325;-21
2023/04/15 12:09:39;;;;;;;;;;;;;;;;;;5034760;28;19920;-21
2023/04/15 12:12:05;;;;;;;;;;;;;;;;;;5035631;28;19924;-22
2023/04/15 12:14:31;;;;;;;;;;;;;;;;;;5035434;28;19913;-21
2023/04/15 12:16:58;;;;;;;;;;;;;;;;;;5035365;28;19909;-22
2023/04/15 12:19:24;;;;;;;;;;;;;;;;;;5035220;28;19917;-22
2023/04/15 12:21:51;;;;;;;;;;;;;;;;;;5034149;28;19916;-22
2023/04/15 12:24:17;;;;;;;;;;;;;;;;;;5035229;28;19909;-21
2023/04/15 12:26:43;;;;;;;;;;;;;;;;;;5035273;28;20355;-22
2023/04/15 12:29:08;;;;;;;;;;;;;;;;;;5035283;28;19917;-22
2023/04/15 12:31:35;;;;;;;;;;;;;;;;;;5035092;28;20004;-22
2023/04/15 12:34:02;;;;;;;;;;;;;;;;;;5035114;28;20309;-22
2023/04/15 12:36:29;;;;;;;;;;;;;;;;;;5035251;28;19913;-22
2023/04/15 12:38:55;;;;;;;;;;;;;;;;;;5035232;28;19913;-23
2023/04/15 12:41:21;;;;;;;;;;;;;;;;;;5033910;28;20233;-21
2023/04/15 12:43:47;;;;;;;;;;;;;;;;;;5034956;28;19920;-20
2023/04/15 12:46:14;;;;;;;;;;;;;;;;;;5035111;28;19910;-24
2023/04/15 12:48:40;;;;;;;;;;;;;;;;;;5034752;28;19912;-22
2023/04/15 12:51:06;;;;;;;;;;;;;;;;;;5035765;28;19909;-22
2023/04/15 12:53:32;;;;;;;;;;;;;;;;;;5034885;28;19935;-23
2023/04/15 12:55:58;;;;;;;;;;;;;;;;;;5034994;28;20003;-22
2023/04/15 12:58:24;;;;;;;;;;;;;;;;;;5034722;28;19927;-20
2023/04/15 13:00:50;;;;;;;;;;;;;;;;;;5034918;28;20359;-23
2023/04/15 13:03:16;;;;;;;;;;;;;;;;;;5034428;28;19917;-23
2023/04/15 13:05:42;;;;;;;;;;;;;;;;;;5034958;28;20000;-21
2023/04/15 13:08:08;;;;;;;;;;;;;;;;;;5034724;28;19913;-22
2023/04/15 13:10:35;;;;;;;;;;;;;;;;;;5034580;28;19913;-22
2023/04/15 13:13:01;;;;;;;;;;;;;;;;;;5033497;28;20248;-20
2023/04/15 13:15:27;;;;;;;;;;;;;;;;;;5034477;28;20297;-21
2023/04/15 13:17:53;;;;;;;;;;;;;;;;;;5034465;28;19920;-22
2023/04/15 13:20:20;;;;;;;;;;;;;;;;;;5034641;28;20260;-22
2023/04/15 13:22:46;;;;;;;;;;;;;;;;;;5038604;28;19979;-23
2023/04/15 13:25:12;;;;;;;;;;;;;;;;;;5038834;28;20344;-21
2023/04/15 13:27:38;;;;;;;;;;;;;;;;;;5038483;28;19910;-22
2023/04/15 13:30:04;;;;;;;;;;;;;;;;;;5038217;28;19913;-22
2023/04/15 13:32:30;;;;;;;;;;;;;;;;;;5037423;28;19964;-21
2023/04/15 13:34:56;;;;;;;;;;;;;;;;;;5038707;28;19920;-24
2023/04/15 13:37:22;;;;;;;;;;;;;;;;;;5038619;28;19949;-22
2023/04/15 13:39:48;;;;;;;;;;;;;;;;;;5038243;28;19947;-22
2023/04/15 13:42:14;;;;;;;;;;;;;;;;;;5038178;28;20008;-22
2023/04/15 13:44:40;;;;;;;;;;;;;;;;;;5037283;28;20324;-24
2023/04/15 13:47:06;;;;;;;;;;;;;;;;;;5038131;28;20005;-22
2023/04/15 13:49:32;;;;;;;;;;;;;;;;;;5038072;28;20366;-21
2023/04/15 13:51:58;;;;;;;;;;;;;;;;;;5038103;28;19909;-22
2023/04/15 13:54:24;;;;;;;;;;;;;;;;;;5038019;28;19913;-21
2023/04/15 13:56:49;;;;;;;;;;;;;;;;;;5038030;28;19917;-23
2023/04/15 13:59:15;;;;;;;;;;;;;;;;;;5038233;28;20354;-22
2023/04/15 14:01:42;;;;;;;;;;;;;;;;;;5037948;28;20051;-23
2023/04/15 14:04:08;;;;;;;;;;;;;;;;;;5037703;28;20348;-22
2023/04/15 14:06:34;;;;;;;;;;;;;;;;;;5038056;28;19923;-21
2023/04/15 14:09:00;;;;;;;;;;;;;;;;;;5037672;28;19917;-22
2023/04/15 14:11:26;;;;;;;;;;;;;;;;;;5037927;28;19909;-22
2023/04/15 14:13:52;;;;;;;;;;;;;;;;;;5037299;28;19916;-23
2023/04/15 14:16:18;;;;;;;;;;;;;;;;;;5037908;28;19919;-21
2023/04/15 14:18:44;;;;;;;;;;;;;;;;;;5037591;28;19983;-21
2023/04/15 14:21:10;;;;;;;;;;;;;;;;;;5037844;28;20384;-22
2023/04/15 14:23:36;;;;;;;;;;;;;;;;;;5037491;28;19951;-22
2023/04/15 14:26:02;;;;;;;;;;;;;;;;;;5037747;28;20324;-22
2023/04/15 14:28:28;;;;;;;;;;;;;;;;;;5037578;28;20427;-22
2023/04/15 14:30:54;;;;;;;;;;;;;;;;;;5037439;28;20218;-23
2023/04/15 14:33:20;;;;;;;;;;;;;;;;;;5036792;28;20260;-22
2023/04/15 14:35:45;;;;;;;;;;;;;;;;;;5037607;28;19909;-24
2023/04/15 14:38:11;;;;;;;;;;;;;;;;;;5037232;28;19975;-22
2023/04/15 14:40:37;;;;;;;;;;;;;;;;;;5037449;28;20359;-22
2023/04/15 14:43:03;;;;;;;;;;;;;;;;;;5037124;28;20276;-21
2023/04/15 14:45:29;;;;;;;;;;;;;;;;;;5037012;28;19919;-21
2023/04/15 14:47:55;;;;;;;;;;;;;;;;;;5036953;28;19917;-22
2023/04/15 14:50:21;;;;;;;;;;;;;;;;;;5037031;28;19959;-22
2023/04/15 14:52:47;;;;;;;;;;;;;;;;;;5037113;28;19995;-21
2023/04/15 14:55:13;;;;;;;;;;;;;;;;;;5036970;28;19939;-21
2023/04/15 14:57:39;;;;;;;;;;;;;;;;;;5036895;28;19909;-22
2023/04/15 15:00:06;;;;;;;;;;;;;;;;;;5036895;28;19909;-22
2023/04/15 15:02:32;;;;;;;;;;;;;;;;;;5036738;28;19909;-22
2023/04/15 15:04:58;;;;;;;;;;;;;;;;;;5036626;28;19928;-22
2023/04/15 15:07:26;;;;;;;;;;;;;;;;;;5036305;28;20201;-24
2023/04/15 15:09:52;;;;;;;;;;;;;;;;;;5036868;28;20284;-23
2023/04/15 15:12:18;;;;;;;;;;;;;;;;;;5036602;28;19913;-22
2023/04/15 15:14:44;;;;;;;;;;;;;;;;;;5036829;28;20305;-21
2023/04/15 15:17:10;;;;;;;;;;;;;;;;;;5036470;28;19947;-21
2023/04/15 15:19:36;;;;;;;;;;;;;;;;;;5036450;28;19945;-22
2023/04/15 15:22:02;;;;;;;;;;;;;;;;;;5036456;28;20377;-22
2023/04/15 15:24:28;;;;;;;;;;;;;;;;;;5036883;28;19955;-22
2023/04/15 15:26:54;;;;;;;;;;;;;;;;;;5036410;28;20312;-21
2023/04/15 15:29:20;;;;;;;;;;;;;;;;;;5036220;28;20332;-22
2023/04/15 15:31:46;;;;;;;;;;;;;;;;;;5036174;28;19955;-21
2023/04/15 15:34:12;;;;;;;;;;;;;;;;;;5036221;28;19910;-22
2023/04/15 15:36:38;;;;;;;;;;;;;;;;;;5036176;28;20020;-22
2023/04/15 15:39:04;;;;;;;;;;;;;;;;;;5036201;28;19913;-21
2023/04/15 15:41:32;;;;;;;;;;;;;;;;;;5036381;28;19955;-20
2023/04/15 15:43:58;;;;;;;;;;;;;;;;;;5035585;28;19932;-21
2023/04/15 15:46:24;;;;;;;;;;;;;;;;;;5035639;28;20348;-22
2023/04/15 15:48:50;;;;;;;;;;;;;;;;;;5036087;28;19913;-22
2023/04/15 15:51:15;;;;;;;;;;;;;;;;;;5036032;28;20056;-21
2023/04/15 15:53:43;;;;;;;;;;;;;;;;;;5035771;28;19913;-22
2023/04/15 15:56:09;;;;;;;;;;;;;;;;;;5036113;28;20251;-23
2023/04/15 15:58:35;;;;;;;;;;;;;;;;;;5035983;28;20011;-21
2023/04/15 16:01:01;;;;;;;;;;;;;;;;;;5035778;28;19917;-23
2023/04/15 16:03:27;;;;;;;;;;;;;;;;;;5035514;28;20303;-23
2023/04/15 16:05:53;;;;;;;;;;;;;;;;;;5035907;28;19992;-21
2023/04/15 16:08:19;;;;;;;;;;;;;;;;;;5035473;28;19913;-23
2023/04/15 16:10:45;;;;;;;;;;;;;;;;;;5035573;28;19928;-22
2023/04/15 16:13:11;;;;;;;;;;;;;;;;;;5035393;28;19963;-21
2023/04/15 16:15:37;;;;;;;;;;;;;;;;;;5034467;28;19921;-22
2023/04/15 16:18:03;;;;;;;;;;;;;;;;;;5035667;28;19941;-23
2023/04/15 16:20:29;;;;;;;;;;;;;;;;;;5035379;28;20356;-23
2023/04/15 16:22:55;;;;;;;;;;;;;;;;;;5035282;28;19920;-20
2023/04/15 16:25:21;;;;;;;;;;;;;;;;;;5035270;28;19999;-22
2023/04/15 16:27:47;;;;;;;;;;;;;;;;;;5035372;28;20098;-21
2023/04/15 16:30:14;;;;;;;;;;;;;;;;;;5035173;28;19909;-21
2023/04/15 16:32:39;;;;;;;;;;;;;;;;;;5035067;28;19909;-22
2023/04/15 16:35:06;;;;;;;;;;;;;;;;;;5035045;28;20004;-21
2023/04/15 16:37:32;;;;;;;;;;;;;;;;;;5035123;28;20359;-21